アダック島 の空港の天気 - METARとTAF

アダック空港 ( PADK / ADK ) - アメリカ アラスカ州アダック島
飛行場実況気象(Metar)
観測時間04/21 08:56 AKDT (04/21 16:56 UTC)
風向・風速南 6m/s
視程10km以上
天気現象弱い雨
全天を覆う雲 雲底高度 610m
気温2.8℃
湿度82%
気圧1017.7hPa
METARPADK 211656Z AUTO 18012KT 10SM -RA OVC020 03/00 A3005 RMK AO2 UPE26RAB26 SLP177 P0001 T00280000
過去の天気等 Google飛行場航空写真 Wunderground天気予報

過去48時間のMETAR

飛行場予報(TAF)
データがありません